createdAt,value
2018-04-28T00:02:08.939Z,28.20
2018-04-28T00:04:43.353Z,28.70
2018-04-28T00:07:18.079Z,29.30
2018-04-28T00:09:54.105Z,29.20
2018-04-28T00:12:29.143Z,29.60
2018-04-28T00:15:03.733Z,29.80
2018-04-28T00:17:42.683Z,29.90
2018-04-28T00:20:22.302Z,31.00
2018-04-28T00:23:02.914Z,31.70
2018-04-28T00:25:43.622Z,32.50
2018-04-28T00:31:39.126Z,32.40
2018-04-28T00:34:13.542Z,33.20
2018-04-28T00:40:03.871Z,32.40
2018-04-28T00:42:40.833Z,32.90
2018-04-28T00:45:41.199Z,32.70
2018-04-28T00:48:24.539Z,32.80
2018-04-28T00:50:59.832Z,32.60
2018-04-28T00:53:33.478Z,32.70
2018-04-28T00:56:10.729Z,32.70
2018-04-28T00:58:49.211Z,31.70
2018-04-28T01:01:22.990Z,31.70
2018-04-28T01:03:58.630Z,31.30
2018-04-28T01:06:33.462Z,31.10
2018-04-28T01:09:07.076Z,31.00
2018-04-28T01:11:41.698Z,31.20
2018-04-28T01:14:16.290Z,31.30
2018-04-28T01:16:51.603Z,31.50
2018-04-28T01:19:32.040Z,31.40
2018-04-28T01:22:05.902Z,31.40
2018-04-28T01:24:40.335Z,32.10
2018-04-28T01:27:19.833Z,32.10
2018-04-28T01:30:00.163Z,32.40
2018-04-28T01:32:40.526Z,32.70
2018-04-28T01:35:14.316Z,32.70
2018-04-28T01:40:47.874Z,33.70
2018-04-28T01:46:41.049Z,34.10
2018-04-28T01:52:34.135Z,34.30
2018-04-28T01:55:44.327Z,35.30
2018-04-28T01:58:21.420Z,35.90
2018-04-28T02:01:00.991Z,37.00
2018-04-28T02:03:48.043Z,37.30
2018-04-28T02:06:29.547Z,37.90
2018-04-28T02:09:06.026Z,38.20
2018-04-28T02:11:43.141Z,39.30
2018-04-28T02:14:23.475Z,39.40
2018-04-28T02:17:15.867Z,40.30
2018-04-28T02:19:58.311Z,40.80
2018-04-28T02:22:39.593Z,41.10
2018-04-28T02:25:19.735Z,41.30
2018-04-28T02:28:04.905Z,44.00
2018-04-28T02:30:40.891Z,43.90
2018-04-28T02:33:16.464Z,43.40
2018-04-28T02:35:56.669Z,44.50
2018-04-28T02:38:37.183Z,44.10
2018-04-28T02:41:14.831Z,43.90
2018-04-28T02:43:56.160Z,43.90
2018-04-28T02:46:42.197Z,44.00
2018-04-28T02:49:23.469Z,44.00
2018-04-28T02:52:08.443Z,44.60
2018-04-28T02:54:50.133Z,43.80
2018-04-28T02:57:37.121Z,41.90
2018-04-28T03:00:27.945Z,41.90
2018-04-28T03:03:05.951Z,41.50
2018-04-28T03:05:41.335Z,42.00
2018-04-28T03:08:20.139Z,41.90
2018-04-28T03:10:56.196Z,42.20
2018-04-28T03:13:39.989Z,42.50
2018-04-28T03:16:30.592Z,43.80
2018-04-28T03:19:08.759Z,43.90
2018-04-28T03:21:47.668Z,43.70
2018-04-28T03:24:24.354Z,44.40
2018-04-28T03:27:15.925Z,44.80
2018-04-28T03:29:49.613Z,44.70
2018-04-28T03:32:42.022Z,45.20
2018-04-28T03:35:17.598Z,45.20
2018-04-28T03:37:56.203Z,46.40
2018-04-28T03:40:32.020Z,46.50
2018-04-28T03:43:35.205Z,46.70
2018-04-28T03:46:16.933Z,47.40
2018-04-28T03:48:56.726Z,47.80
2018-04-28T03:51:32.044Z,47.30
2018-04-28T03:54:07.988Z,44.90
2018-04-28T03:56:48.015Z,44.90
2018-04-28T03:59:34.343Z,44.50
2018-04-28T04:02:30.722Z,44.50
2018-04-28T04:05:07.751Z,44.00
2018-04-28T04:08:03.972Z,44.10
2018-04-28T04:10:49.908Z,44.00
2018-04-28T04:13:45.334Z,44.20
2018-04-28T04:16:26.440Z,44.60
2018-04-28T04:22:17.544Z,44.70
2018-04-28T04:25:01.295Z,45.00
2018-04-28T04:27:55.401Z,44.90
2018-04-28T04:30:40.860Z,44.80
2018-04-28T04:33:47.859Z,44.50
2018-04-28T04:36:43.094Z,44.10
2018-04-28T04:45:40.627Z,38.00
2018-04-28T04:48:26.847Z,36.90
2018-04-28T04:51:03.173Z,36.30
2018-04-28T04:53:45.495Z,35.30
2018-04-28T04:56:29.106Z,34.60
2018-04-28T04:59:12.620Z,34.10
2018-04-28T05:04:57.667Z,33.80
2018-04-28T05:07:46.977Z,33.90
2018-04-28T05:10:35.286Z,33.00
2018-04-28T05:13:37.697Z,33.00
2018-04-28T05:16:23.350Z,31.70
2018-04-28T05:19:07.621Z,29.10
2018-04-28T05:24:48.630Z,25.20
2018-04-28T05:27:44.073Z,23.20
2018-04-28T05:30:30.033Z,22.10
2018-04-28T05:33:07.172Z,20.80
2018-04-28T05:42:24.826Z,15.60
2018-04-28T05:45:12.435Z,15.60
2018-04-28T05:47:59.157Z,14.60
2018-04-28T05:50:49.755Z,13.80
2018-04-28T05:53:38.939Z,13.40
2018-04-28T05:56:19.281Z,12.80
2018-04-28T05:59:03.618Z,12.60
2018-04-28T06:01:44.063Z,11.80
2018-04-28T06:04:31.222Z,11.80
2018-04-28T06:07:31.211Z,12.10
2018-04-28T06:10:14.842Z,11.40
2018-04-28T06:12:55.431Z,11.20
2018-04-28T06:15:47.953Z,11.40
2018-04-28T06:18:33.650Z,11.00
2018-04-28T06:21:10.225Z,11.10
2018-04-28T06:23:47.537Z,11.10
2018-04-28T06:26:22.720Z,10.50
2018-04-28T06:28:59.418Z,10.50
2018-04-28T06:31:35.076Z,9.00
2018-04-28T06:34:10.156Z,9.00
2018-04-28T06:36:43.931Z,9.00
2018-04-28T06:39:18.414Z,9.00
2018-04-28T06:41:54.591Z,8.10
2018-04-28T06:44:29.198Z,7.00
2018-04-28T06:47:03.047Z,7.00
2018-04-28T06:49:38.676Z,6.30
2018-04-28T06:52:13.463Z,5.60
2018-04-28T06:54:47.679Z,5.20
2018-04-28T06:57:24.815Z,5.00
2018-04-28T06:59:58.564Z,4.60
2018-04-28T07:02:32.982Z,5.10
2018-04-28T07:05:07.411Z,5.10
2018-04-28T07:07:43.264Z,4.90
2018-04-28T07:10:18.018Z,4.80
2018-04-28T07:12:53.704Z,4.30
2018-04-28T07:15:28.443Z,4.30
2018-04-28T07:18:05.250Z,4.00
2018-04-28T07:20:39.294Z,3.50
2018-04-28T07:23:13.027Z,3.90
2018-04-28T07:25:47.170Z,3.30
2018-04-28T07:28:20.886Z,2.90
2018-04-28T07:30:54.652Z,2.00
2018-04-28T07:33:29.978Z,2.30
2018-04-28T07:36:03.774Z,2.20
2018-04-28T07:38:38.163Z,2.30
2018-04-28T07:41:12.611Z,1.40
2018-04-28T07:43:50.623Z,1.00
2018-04-28T07:46:25.368Z,1.10
2018-04-28T07:49:00.403Z,1.80
2018-04-28T07:51:39.628Z,1.00
2018-04-28T07:54:13.319Z,1.00
2018-04-28T07:56:47.152Z,1.00
2018-04-28T07:59:21.796Z,1.00
2018-04-28T08:01:57.422Z,1.00
2018-04-28T08:04:31.507Z,1.00
2018-04-28T08:07:06.253Z,1.00
2018-04-28T08:09:40.087Z,1.00
2018-04-28T08:12:14.450Z,1.00
2018-04-28T08:14:49.659Z,1.00
2018-04-28T08:17:23.362Z,1.00
2018-04-28T08:19:56.963Z,1.00
2018-04-28T08:22:32.485Z,1.00
2018-04-28T08:25:07.500Z,1.00
2018-04-28T08:27:41.929Z,1.00
2018-04-28T08:30:15.632Z,1.00
2018-04-28T08:32:50.298Z,1.00
2018-04-28T08:35:24.939Z,1.00
2018-04-28T08:37:59.115Z,1.00
2018-04-28T08:40:32.866Z,1.00
2018-04-28T08:43:06.644Z,1.00
2018-04-28T08:45:41.258Z,1.00
2018-04-28T08:48:15.990Z,1.00
2018-04-28T08:50:50.058Z,1.00
2018-04-28T08:53:24.376Z,1.00
2018-04-28T08:55:57.993Z,1.00
2018-04-28T08:58:31.763Z,1.00
2018-04-28T09:01:06.663Z,1.00
2018-04-28T09:03:40.267Z,1.00
2018-04-28T09:06:14.220Z,1.00
2018-04-28T09:08:47.880Z,1.00
2018-04-28T09:11:21.551Z,1.00
2018-04-28T09:13:55.241Z,1.00
2018-04-28T09:16:29.314Z,1.00
2018-04-28T09:19:02.996Z,1.00
2018-04-28T09:21:38.607Z,1.00
2018-04-28T09:24:12.258Z,1.00
2018-04-28T09:26:46.033Z,1.00
2018-04-28T09:29:23.114Z,1.00
2018-04-28T09:31:57.507Z,1.00
2018-04-28T09:34:32.133Z,1.00
2018-04-28T09:37:07.395Z,1.00
2018-04-28T09:39:43.262Z,1.00
2018-04-28T09:42:16.990Z,1.00
2018-04-28T09:44:50.656Z,1.00
2018-04-28T09:47:25.051Z,1.00
2018-04-28T09:49:59.465Z,1.00
2018-04-28T09:52:33.135Z,1.00
2018-04-28T09:55:06.919Z,1.00
2018-04-28T09:57:40.720Z,1.00
2018-04-28T10:00:35.210Z,1.00
2018-04-28T10:03:09.650Z,1.00
2018-04-28T10:05:43.821Z,1.00
2018-04-28T10:08:17.737Z,1.00
2018-04-28T10:10:51.505Z,1.00
2018-04-28T10:13:25.205Z,1.00
2018-04-28T10:15:58.893Z,1.00
2018-04-28T10:18:32.470Z,1.00
2018-04-28T10:21:06.279Z,1.00
2018-04-28T10:23:39.955Z,1.00
2018-04-28T10:26:14.336Z,1.00
2018-04-28T10:28:48.077Z,1.00
2018-04-28T10:31:22.714Z,1.00
2018-04-28T10:33:56.320Z,1.00
2018-04-28T10:36:29.993Z,1.00
2018-04-28T10:39:03.747Z,1.00
2018-04-28T10:41:37.559Z,1.00
2018-04-28T10:44:12.731Z,1.00
2018-04-28T10:46:46.335Z,1.00
2018-04-28T10:49:20.125Z,1.00
2018-04-28T10:51:54.086Z,1.00
2018-04-28T10:54:30.531Z,1.00
2018-04-28T10:57:05.214Z,1.00
2018-04-28T10:59:38.853Z,1.00
2018-04-28T11:02:12.942Z,1.00
2018-04-28T11:04:47.307Z,1.00
2018-04-28T11:07:20.904Z,1.00
2018-04-28T11:09:55.260Z,1.00
2018-04-28T11:12:29.797Z,1.00
2018-04-28T11:15:03.959Z,1.00
2018-04-28T11:17:38.450Z,1.00
2018-04-28T11:20:12.157Z,1.00
2018-04-28T11:22:45.976Z,1.00
2018-04-28T11:25:21.852Z,1.00
2018-04-28T11:27:55.710Z,1.00
2018-04-28T11:30:30.411Z,1.00
2018-04-28T11:33:04.871Z,1.00
2018-04-28T11:35:40.003Z,1.00
2018-04-28T11:38:13.665Z,1.00
2018-04-28T11:40:48.624Z,1.00
2018-04-28T11:43:22.397Z,1.00
2018-04-28T11:45:56.515Z,1.00
2018-04-28T11:48:30.259Z,1.00
2018-04-28T11:51:04.084Z,1.00
2018-04-28T11:53:37.764Z,1.00
2018-04-28T11:56:11.579Z,1.00
2018-04-28T11:58:45.435Z,1.00
2018-04-28T12:01:19.114Z,1.00
2018-04-28T12:03:52.933Z,1.00
2018-04-28T12:06:28.128Z,1.00
2018-04-28T12:09:01.868Z,1.00
2018-04-28T12:11:35.497Z,1.00
2018-04-28T12:14:09.211Z,1.00
2018-04-28T12:16:42.953Z,1.00
2018-04-28T12:19:17.511Z,1.00
2018-04-28T12:27:53.708Z,1.00
2018-04-28T12:30:27.458Z,1.00
2018-04-28T12:33:01.179Z,1.00
2018-04-28T12:35:35.363Z,1.00
2018-04-28T12:38:09.791Z,1.00
2018-04-28T12:40:43.588Z,1.00
2018-04-28T12:43:18.415Z,1.00
2018-04-28T12:45:53.022Z,1.00
2018-04-28T12:48:29.660Z,1.00
2018-04-28T12:51:04.274Z,1.00
2018-04-28T12:53:38.437Z,1.00
2018-04-28T12:56:12.261Z,1.00
2018-04-28T12:58:45.825Z,1.00
2018-04-28T13:01:19.696Z,1.00
2018-04-28T13:03:55.067Z,1.00
2018-04-28T13:06:29.516Z,1.00
2018-04-28T13:09:03.942Z,1.00
2018-04-28T13:11:40.859Z,1.00
2018-04-28T13:14:15.469Z,1.00
2018-04-28T13:16:49.172Z,1.00
2018-04-28T13:19:23.008Z,1.00
2018-04-28T13:21:56.865Z,1.00
2018-04-28T13:24:30.831Z,1.00
2018-04-28T13:27:05.418Z,1.00
2018-04-28T13:29:41.852Z,1.00
2018-04-28T13:32:15.986Z,1.00
2018-04-28T13:34:49.986Z,1.00
2018-04-28T13:37:24.803Z,1.00
2018-04-28T13:39:59.493Z,1.00
2018-04-28T13:42:33.981Z,1.00
2018-04-28T13:45:07.660Z,1.00
2018-04-28T13:47:41.394Z,1.00
2018-04-28T13:50:15.146Z,1.00
2018-04-28T13:52:49.295Z,1.00
2018-04-28T13:55:23.031Z,1.00
2018-04-28T13:57:57.539Z,1.00
2018-04-28T14:00:32.109Z,1.00
2018-04-28T14:03:06.693Z,1.00
2018-04-28T14:05:41.877Z,1.00
2018-04-28T14:08:17.504Z,1.00
2018-04-28T14:10:51.107Z,1.00
2018-04-28T14:13:26.345Z,1.00
2018-04-28T14:16:00.139Z,1.00
2018-04-28T14:18:35.007Z,1.00
2018-04-28T14:21:12.357Z,1.00
2018-04-28T14:23:47.123Z,1.00
2018-04-28T14:26:21.935Z,1.00
2018-04-28T14:28:56.585Z,1.00
2018-04-28T14:31:30.537Z,1.00
2018-04-28T14:34:04.301Z,1.00
2018-04-28T14:36:38.896Z,1.00
2018-04-28T14:39:13.107Z,1.00
2018-04-28T14:41:46.814Z,1.00
2018-04-28T14:44:20.593Z,1.00
2018-04-28T14:46:54.707Z,1.00
2018-04-28T14:49:28.843Z,1.00
2018-04-28T14:52:04.008Z,1.00
2018-04-28T14:54:38.221Z,1.00
2018-04-28T14:57:12.707Z,1.00
2018-04-28T14:59:46.490Z,1.00
2018-04-28T15:02:22.559Z,1.00
2018-04-28T15:04:58.870Z,1.00
2018-04-28T15:07:33.911Z,1.00
2018-04-28T15:10:08.412Z,1.00
2018-04-28T15:12:43.513Z,1.00
2018-04-28T15:15:17.713Z,1.00
2018-04-28T15:17:52.883Z,1.00
2018-04-28T15:20:26.686Z,1.00
2018-04-28T15:23:00.796Z,1.00
2018-04-28T15:25:35.230Z,1.00
2018-04-28T15:28:10.545Z,1.00
2018-04-28T15:30:46.276Z,1.00
2018-04-28T15:33:19.866Z,1.00
2018-04-28T15:35:55.575Z,1.00
2018-04-28T15:38:30.933Z,1.00
2018-04-28T15:41:06.128Z,1.00
2018-04-28T15:43:41.886Z,1.00
2018-04-28T15:46:16.959Z,1.00
2018-04-28T15:48:52.175Z,1.00
2018-04-28T15:51:26.748Z,1.00
2018-04-28T15:54:02.069Z,1.00
2018-04-28T15:56:37.039Z,1.00
2018-04-28T15:59:11.566Z,1.00
2018-04-28T16:01:46.936Z,1.00
2018-04-28T16:04:21.650Z,1.00
2018-04-28T16:06:55.423Z,1.00
2018-04-28T16:09:30.859Z,1.00
2018-04-28T16:12:05.226Z,1.00
2018-04-28T16:14:41.226Z,1.00
2018-04-28T16:17:15.704Z,1.00
2018-04-28T16:19:49.323Z,1.00
2018-04-28T16:22:23.079Z,1.00
2018-04-28T16:24:58.312Z,1.00
2018-04-28T16:27:31.942Z,1.00
2018-04-28T16:30:05.787Z,1.00
2018-04-28T16:32:39.500Z,1.00
2018-04-28T16:35:14.162Z,1.00
2018-04-28T16:37:50.198Z,1.00
2018-04-28T16:40:24.976Z,1.00
2018-04-28T16:42:59.883Z,1.00
2018-04-28T16:45:34.420Z,1.00
2018-04-28T16:48:09.705Z,1.00
2018-04-28T16:50:43.501Z,1.00
2018-04-28T16:53:18.951Z,1.00
2018-04-28T16:55:54.694Z,1.00
2018-04-28T16:58:29.344Z,1.00
2018-04-28T17:01:05.302Z,1.00
2018-04-28T17:03:38.938Z,1.00
2018-04-28T17:06:13.559Z,1.00
2018-04-28T17:08:48.018Z,1.00
2018-04-28T17:11:21.630Z,1.00
2018-04-28T17:13:55.301Z,1.00
2018-04-28T17:16:29.416Z,1.00
2018-04-28T17:19:03.816Z,1.00
2018-04-28T17:21:43.837Z,1.00
2018-04-28T17:24:18.294Z,1.00
2018-04-28T17:26:53.090Z,1.00
2018-04-28T17:29:26.725Z,1.00
2018-04-28T17:32:01.318Z,1.00
2018-04-28T17:34:37.624Z,1.00
2018-04-28T17:37:11.382Z,1.00
2018-04-28T17:39:46.566Z,1.00
2018-04-28T17:42:23.390Z,1.00
2018-04-28T17:44:57.787Z,1.00
2018-04-28T17:47:31.570Z,1.00
2018-04-28T17:50:06.263Z,1.00
2018-04-28T17:52:40.272Z,1.00
2018-04-28T17:55:16.076Z,1.00
2018-04-28T17:57:49.970Z,1.00
2018-04-28T18:00:24.044Z,1.00
2018-04-28T18:02:59.327Z,1.00
2018-04-28T18:05:34.027Z,1.00
2018-04-28T18:08:08.483Z,1.00
2018-04-28T18:10:42.980Z,1.00
2018-04-28T18:13:17.334Z,1.00
2018-04-28T18:15:51.993Z,1.00
2018-04-28T18:18:26.407Z,1.00
2018-04-28T18:21:03.009Z,1.00
2018-04-28T18:23:37.195Z,1.00
2018-04-28T18:26:11.924Z,1.00
2018-04-28T18:28:46.659Z,1.00
2018-04-28T18:31:22.418Z,1.00
2018-04-28T18:33:56.283Z,1.00
2018-04-28T18:36:32.252Z,1.00
2018-04-28T18:39:08.889Z,1.00
2018-04-28T18:41:43.686Z,1.00
2018-04-28T18:44:18.734Z,1.00
2018-04-28T18:46:55.499Z,1.00
2018-04-28T18:49:32.988Z,1.00
2018-04-28T18:52:07.475Z,1.00
2018-04-28T18:54:41.895Z,1.00
2018-04-28T18:57:18.699Z,1.00
2018-04-28T18:59:52.480Z,1.00
2018-04-28T19:02:27.107Z,1.00
2018-04-28T19:05:00.706Z,1.00
2018-04-28T19:07:34.438Z,1.00
2018-04-28T19:10:09.778Z,1.00
2018-04-28T19:12:44.718Z,1.00
2018-04-28T19:15:19.778Z,1.00
2018-04-28T19:17:54.178Z,1.00
2018-04-28T19:20:29.869Z,1.00
2018-04-28T19:23:03.967Z,1.00
2018-04-28T19:25:38.525Z,1.00
2018-04-28T19:28:14.121Z,1.00
2018-04-28T19:30:49.842Z,1.00
2018-04-28T19:33:25.402Z,1.00
2018-04-28T19:36:00.414Z,1.00
2018-04-28T19:38:34.538Z,1.00
2018-04-28T19:41:10.511Z,1.00
2018-04-28T19:43:45.603Z,1.00
2018-04-28T19:46:20.155Z,1.00
2018-04-28T19:48:55.589Z,1.00
2018-04-28T19:51:29.941Z,1.00
2018-04-28T19:54:04.715Z,1.00
2018-04-28T19:56:40.215Z,1.00
2018-04-28T19:59:13.779Z,1.00
2018-04-28T20:01:48.299Z,1.00
2018-04-28T20:04:23.184Z,1.00
2018-04-28T20:06:59.113Z,1.00
2018-04-28T20:09:33.705Z,1.00
2018-04-28T20:12:07.465Z,1.00
2018-04-28T20:14:41.256Z,1.00
2018-04-28T20:17:16.645Z,1.00
2018-04-28T20:19:51.896Z,1.00
2018-04-28T20:22:37.324Z,1.20
2018-04-28T20:25:23.850Z,1.70
2018-04-28T20:27:59.581Z,1.90
2018-04-28T20:30:33.916Z,1.60
2018-04-28T20:33:08.648Z,1.80
2018-04-28T20:35:43.459Z,2.10
2018-04-28T20:38:18.001Z,2.70
2018-04-28T20:40:52.886Z,2.90
2018-04-28T20:43:27.521Z,3.00
2018-04-28T20:46:01.672Z,3.20
2018-04-28T20:48:35.885Z,3.20
2018-04-28T20:51:11.900Z,3.60
2018-04-28T20:53:46.982Z,3.90
2018-04-28T20:56:21.277Z,4.10
2018-04-28T20:58:56.209Z,4.60
2018-04-28T21:01:31.850Z,4.60
2018-04-28T21:04:07.791Z,4.40
2018-04-28T21:06:44.589Z,4.50
2018-04-28T21:09:19.427Z,4.40
2018-04-28T21:11:54.352Z,4.50
2018-04-28T21:14:29.638Z,5.10
2018-04-28T21:17:04.869Z,5.70
2018-04-28T21:19:39.017Z,6.10
2018-04-28T21:22:13.907Z,5.80
2018-04-28T21:24:49.018Z,6.00
2018-04-28T21:27:27.890Z,6.10
2018-04-28T21:30:03.383Z,6.30
2018-04-28T21:32:39.582Z,6.60
2018-04-28T21:35:14.287Z,6.30
2018-04-28T21:37:50.953Z,7.00
2018-04-28T21:40:27.653Z,7.00
2018-04-28T21:43:05.896Z,7.10
2018-04-28T21:45:41.991Z,7.50
2018-04-28T21:48:15.690Z,7.50
2018-04-28T21:50:50.912Z,7.60
2018-04-28T21:53:25.909Z,7.70
2018-04-28T21:56:00.706Z,7.80
2018-04-28T21:58:36.268Z,7.90
2018-04-28T22:01:11.147Z,7.90
2018-04-28T22:03:44.933Z,8.40
2018-04-28T22:06:18.656Z,8.30
2018-04-28T22:08:52.419Z,7.90
2018-04-28T22:11:26.922Z,7.80
2018-04-28T22:14:02.185Z,7.60
2018-04-28T22:16:36.116Z,7.90
2018-04-28T22:19:10.763Z,7.90
2018-04-28T22:21:45.265Z,7.90
2018-04-28T22:24:20.102Z,8.20
2018-04-28T22:26:56.024Z,10.40
2018-04-28T22:29:37.275Z,10.40
2018-04-28T22:32:12.071Z,11.80
2018-04-28T22:34:46.636Z,13.20
2018-04-28T22:37:22.683Z,13.20
2018-04-28T22:39:56.374Z,13.20
2018-04-28T22:42:31.108Z,13.20
2018-04-28T22:45:04.882Z,13.20
2018-04-28T22:47:40.979Z,13.10
2018-04-28T22:50:16.185Z,13.10
2018-04-28T22:52:51.342Z,13.10
2018-04-28T22:55:25.557Z,13.10
2018-04-28T22:57:59.350Z,13.10
2018-04-28T23:00:41.646Z,13.10
2018-04-28T23:03:17.432Z,13.10
2018-04-28T23:08:38.920Z,13.10
2018-04-28T23:11:13.486Z,13.10
2018-04-28T23:13:47.974Z,13.10
2018-04-28T23:16:23.657Z,13.80
2018-04-28T23:18:59.370Z,14.70
2018-04-28T23:21:34.698Z,15.10
2018-04-28T23:24:09.503Z,15.30
2018-04-28T23:26:44.002Z,16.80
2018-04-28T23:29:18.715Z,19.20
2018-04-28T23:31:53.384Z,19.10
2018-04-28T23:34:28.126Z,19.60
2018-04-28T23:37:01.837Z,19.50
2018-04-28T23:39:37.880Z,17.90
2018-04-28T23:42:13.572Z,17.90
2018-04-28T23:44:48.106Z,17.80
2018-04-28T23:47:22.767Z,17.30
2018-04-28T23:49:59.093Z,18.10
2018-04-28T23:52:34.973Z,18.10
2018-04-28T23:55:08.553Z,19.10
2018-04-28T23:57:44.694Z,20.50
